createdAt,value
2018-05-02T00:00:33.279Z,63.20
2018-05-02T00:03:00.812Z,63.70
2018-05-02T00:05:28.258Z,63.60
2018-05-02T00:07:55.713Z,63.60
2018-05-02T00:10:23.300Z,63.50
2018-05-02T00:12:50.971Z,63.10
2018-05-02T00:15:18.507Z,63.00
2018-05-02T00:17:45.949Z,62.10
2018-05-02T00:20:13.747Z,63.20
2018-05-02T00:22:41.180Z,63.60
2018-05-02T00:25:08.673Z,64.10
2018-05-02T00:27:36.127Z,63.80
2018-05-02T00:30:03.584Z,63.80
2018-05-02T00:32:31.217Z,63.20
2018-05-02T00:34:58.676Z,63.30
2018-05-02T00:37:26.994Z,63.30
2018-05-02T00:39:54.421Z,63.20
2018-05-02T00:42:22.064Z,63.60
2018-05-02T00:44:49.720Z,63.20
2018-05-02T00:47:17.198Z,63.50
2018-05-02T00:49:44.851Z,63.40
2018-05-02T00:52:12.297Z,63.80
2018-05-02T00:54:39.767Z,64.10
2018-05-02T00:57:07.298Z,63.40
2018-05-02T00:59:34.801Z,64.00
2018-05-02T01:02:02.333Z,64.60
2018-05-02T01:04:30.006Z,64.80
2018-05-02T01:06:58.959Z,65.50
2018-05-02T01:09:26.617Z,65.50
2018-05-02T01:11:54.038Z,65.80
2018-05-02T01:14:21.476Z,66.00
2018-05-02T01:16:49.110Z,66.10
2018-05-02T01:19:16.664Z,66.70
2018-05-02T01:21:44.105Z,66.80
2018-05-02T01:24:11.706Z,67.10
2018-05-02T01:26:39.135Z,68.10
2018-05-02T01:29:06.791Z,67.30
2018-05-02T01:31:34.287Z,67.50
2018-05-02T01:34:01.717Z,67.60
2018-05-02T01:36:29.184Z,67.70
2018-05-02T01:38:56.838Z,67.70
2018-05-02T01:41:24.512Z,68.00
2018-05-02T01:43:52.567Z,68.30
2018-05-02T01:46:20.115Z,68.90
2018-05-02T01:48:59.494Z,68.90
2018-05-02T01:51:27.850Z,69.50
2018-05-02T01:53:55.493Z,69.90
2018-05-02T01:56:22.928Z,69.20
2018-05-02T01:58:50.364Z,69.30
2018-05-02T02:01:17.810Z,69.70
2018-05-02T02:03:46.016Z,69.90
2018-05-02T02:06:13.469Z,69.80
2018-05-02T02:08:40.993Z,69.70
2018-05-02T02:11:09.219Z,70.20
2018-05-02T02:13:36.778Z,69.50
2018-05-02T02:16:04.310Z,69.70
2018-05-02T02:18:31.908Z,69.50
2018-05-02T02:20:59.580Z,69.30
2018-05-02T02:23:28.528Z,69.60
2018-05-02T02:25:56.005Z,69.50
2018-05-02T02:28:23.415Z,69.70
2018-05-02T02:30:52.042Z,69.60
2018-05-02T02:33:19.490Z,70.00
2018-05-02T02:35:46.943Z,70.10
2018-05-02T02:38:14.419Z,70.30
2018-05-02T02:40:41.882Z,70.50
2018-05-02T02:43:09.533Z,70.50
2018-05-02T02:45:37.194Z,70.80
2018-05-02T02:48:04.852Z,71.00
2018-05-02T02:50:32.316Z,71.10
2018-05-02T02:52:59.772Z,71.20
2018-05-02T02:55:27.247Z,71.30
2018-05-02T03:08:27.527Z,72.30
2018-05-02T03:10:55.196Z,72.50
2018-05-02T03:13:22.833Z,72.40
2018-05-02T03:15:50.376Z,72.70
2018-05-02T03:18:17.825Z,72.90
2018-05-02T03:20:45.341Z,73.10
2018-05-02T03:23:13.567Z,73.40
2018-05-02T03:25:41.028Z,73.40
2018-05-02T03:28:08.490Z,73.60
2018-05-02T03:30:36.006Z,73.70
2018-05-02T03:33:03.531Z,73.70
2018-05-02T03:35:31.670Z,74.00
2018-05-02T03:37:59.118Z,73.90
2018-05-02T03:40:26.794Z,74.10
2018-05-02T03:42:54.375Z,74.20
2018-05-02T03:45:21.816Z,74.40
2018-05-02T03:47:49.483Z,75.10
2018-05-02T03:50:17.005Z,74.40
2018-05-02T03:52:44.463Z,74.60
2018-05-02T03:55:12.045Z,74.80
2018-05-02T03:57:39.595Z,75.00
2018-05-02T04:00:19.328Z,75.20
2018-05-02T04:02:58.585Z,75.30
2018-05-02T04:05:37.884Z,75.60
2018-05-02T04:08:06.189Z,75.80
2018-05-02T04:10:33.728Z,75.80
2018-05-02T04:13:02.172Z,75.80
2018-05-02T04:15:29.802Z,76.00
2018-05-02T04:17:57.272Z,76.20
2018-05-02T04:20:24.730Z,76.00
2018-05-02T04:22:53.078Z,76.10
2018-05-02T04:25:20.652Z,76.10
2018-05-02T04:27:48.964Z,76.20
2018-05-02T04:30:17.474Z,76.20
2018-05-02T04:32:44.899Z,76.20
2018-05-02T04:35:12.488Z,76.50
2018-05-02T04:37:41.016Z,76.50
2018-05-02T04:40:08.803Z,76.70
2018-05-02T04:42:37.024Z,76.90
2018-05-02T04:45:04.457Z,76.90
2018-05-02T04:47:32.045Z,76.70
2018-05-02T04:50:01.215Z,76.80
2018-05-02T04:52:28.679Z,76.80
2018-05-02T04:54:56.259Z,76.70
2018-05-02T04:57:24.736Z,76.70
2018-05-02T04:59:52.216Z,76.40
2018-05-02T05:02:19.677Z,76.30
2018-05-02T05:04:47.112Z,76.30
2018-05-02T05:07:14.556Z,76.20
2018-05-02T05:09:42.089Z,76.00
2018-05-02T05:12:09.543Z,75.80
2018-05-02T05:14:37.144Z,75.40
2018-05-02T05:17:04.701Z,74.80
2018-05-02T05:19:32.528Z,74.50
2018-05-02T05:22:00.016Z,73.70
2018-05-02T05:24:27.486Z,73.60
2018-05-02T05:26:54.944Z,73.20
2018-05-02T05:29:22.561Z,73.30
2018-05-02T05:31:50.025Z,72.70
2018-05-02T05:34:17.477Z,73.00
2018-05-02T05:36:45.068Z,72.60
2018-05-02T05:39:12.598Z,72.30
2018-05-02T05:41:40.183Z,71.60
2018-05-02T05:44:07.641Z,71.50
2018-05-02T05:46:35.289Z,71.30
2018-05-02T05:49:02.786Z,71.30
2018-05-02T05:51:30.232Z,71.30
2018-05-02T05:53:57.823Z,71.80
2018-05-02T05:56:25.234Z,72.60
2018-05-02T05:58:53.810Z,72.10
2018-05-02T06:01:21.279Z,72.10
2018-05-02T06:03:48.795Z,72.40
2018-05-02T06:06:16.393Z,72.10
2018-05-02T06:08:44.041Z,71.70
2018-05-02T06:11:11.511Z,71.20
2018-05-02T06:13:39.963Z,71.30
2018-05-02T06:16:07.424Z,71.30
2018-05-02T06:18:34.893Z,71.80
2018-05-02T06:21:02.467Z,72.10
2018-05-02T06:23:30.220Z,71.80
2018-05-02T06:25:57.977Z,72.20
2018-05-02T06:28:25.444Z,71.20
2018-05-02T06:30:52.992Z,70.60
2018-05-02T06:33:20.522Z,71.00
2018-05-02T06:35:47.986Z,71.20
2018-05-02T06:38:15.576Z,70.70
2018-05-02T06:40:44.607Z,70.70
2018-05-02T06:43:12.040Z,70.70
2018-05-02T06:45:40.393Z,71.20
2018-05-02T06:48:07.911Z,71.20
2018-05-02T06:50:35.523Z,70.80
2018-05-02T06:53:03.060Z,70.80
2018-05-02T06:55:30.617Z,70.50
2018-05-02T06:57:58.279Z,70.90
2018-05-02T07:00:25.830Z,70.10
2018-05-02T07:02:54.084Z,70.20
2018-05-02T07:05:21.679Z,70.10
2018-05-02T07:07:49.342Z,70.10
2018-05-02T07:10:16.975Z,70.70
2018-05-02T07:12:44.431Z,69.70
2018-05-02T07:15:11.930Z,68.60
2018-05-02T07:17:39.563Z,68.60
2018-05-02T07:20:07.015Z,67.40
2018-05-02T07:22:34.552Z,66.50
2018-05-02T07:25:02.160Z,66.10
2018-05-02T07:27:29.798Z,65.50
2018-05-02T07:29:57.338Z,65.30
2018-05-02T07:32:24.910Z,65.10
2018-05-02T07:34:52.368Z,65.20
2018-05-02T07:37:19.833Z,65.00
2018-05-02T07:39:47.357Z,64.40
2018-05-02T07:42:15.004Z,64.70
2018-05-02T07:44:42.620Z,64.40
2018-05-02T07:47:10.153Z,63.30
2018-05-02T07:49:37.679Z,63.90
2018-05-02T07:52:05.877Z,63.60
2018-05-02T07:54:33.449Z,63.50
2018-05-02T07:57:00.899Z,61.50
2018-05-02T07:59:28.376Z,63.70
2018-05-02T08:01:56.035Z,63.30
2018-05-02T08:04:23.555Z,62.40
2018-05-02T08:06:51.000Z,61.60
2018-05-02T08:09:18.533Z,60.40
2018-05-02T08:11:46.887Z,60.70
2018-05-02T08:14:14.403Z,59.90
2018-05-02T08:16:41.863Z,60.60
2018-05-02T08:19:09.441Z,60.00
2018-05-02T08:21:36.927Z,59.60
2018-05-02T08:24:05.901Z,59.30
2018-05-02T08:26:33.350Z,59.30
2018-05-02T08:29:00.916Z,58.90
2018-05-02T08:31:28.585Z,59.10
2018-05-02T08:33:56.121Z,58.30
2018-05-02T08:36:23.704Z,57.40
2018-05-02T08:38:51.374Z,57.70
2018-05-02T08:41:18.819Z,56.40
2018-05-02T08:43:46.268Z,54.70
2018-05-02T08:46:13.725Z,55.00
2018-05-02T08:48:41.270Z,54.50
2018-05-02T08:51:08.842Z,53.70
2018-05-02T08:53:36.485Z,53.90
2018-05-02T08:56:03.959Z,55.20
2018-05-02T08:58:31.625Z,55.70
2018-05-02T09:00:59.332Z,55.60
2018-05-02T09:03:26.751Z,53.10
2018-05-02T09:05:54.393Z,51.70
2018-05-02T09:08:22.052Z,50.60
2018-05-02T09:10:49.592Z,51.00
2018-05-02T09:13:17.043Z,52.10
2018-05-02T09:15:44.509Z,52.10
2018-05-02T09:18:16.688Z,52.10
2018-05-02T09:20:45.199Z,49.20
2018-05-02T09:23:18.952Z,50.00
2018-05-02T09:25:48.528Z,49.70
2018-05-02T09:28:15.938Z,50.30
2018-05-02T09:30:46.037Z,48.80
2018-05-02T09:33:16.357Z,45.80
2018-05-02T09:35:47.643Z,45.70
2018-05-02T09:38:15.087Z,45.00
2018-05-02T09:40:42.616Z,46.10
2018-05-02T09:43:11.871Z,42.80
2018-05-02T09:45:40.108Z,43.40
2018-05-02T09:48:07.570Z,45.30
2018-05-02T09:50:47.382Z,45.80
2018-05-02T09:53:14.821Z,46.40
2018-05-02T09:55:42.297Z,45.70
2018-05-02T09:58:09.798Z,45.80
2018-05-02T10:00:37.342Z,43.60
2018-05-02T10:03:04.787Z,42.40
2018-05-02T10:05:32.242Z,43.40
2018-05-02T10:07:59.766Z,43.70
2018-05-02T10:10:27.562Z,44.30
2018-05-02T10:12:59.602Z,42.70
2018-05-02T10:15:27.162Z,43.20
2018-05-02T10:17:54.719Z,42.40
2018-05-02T10:20:26.069Z,42.80
2018-05-02T10:22:55.323Z,42.80
2018-05-02T10:25:29.193Z,42.50
2018-05-02T10:27:56.726Z,42.70
2018-05-02T10:30:25.322Z,43.40
2018-05-02T10:32:54.284Z,44.30
2018-05-02T10:35:22.489Z,43.30
2018-05-02T10:37:58.995Z,43.30
2018-05-02T10:40:26.542Z,44.40
2018-05-02T10:42:55.484Z,43.60
2018-05-02T10:45:22.957Z,43.50
2018-05-02T10:47:50.557Z,43.80
2018-05-02T10:50:18.192Z,43.90
2018-05-02T10:52:45.871Z,43.50
2018-05-02T10:55:13.427Z,42.70
2018-05-02T10:57:40.853Z,43.30
2018-05-02T11:00:08.382Z,44.70
2018-05-02T11:02:36.592Z,43.30
2018-05-02T11:05:06.084Z,43.30
2018-05-02T11:10:08.981Z,43.50
2018-05-02T11:12:36.875Z,42.00
2018-05-02T11:15:04.312Z,41.10
2018-05-02T11:17:31.906Z,42.40
2018-05-02T11:19:59.540Z,43.30
2018-05-02T11:22:27.095Z,39.90
2018-05-02T11:24:54.560Z,39.90
2018-05-02T11:27:22.013Z,40.50
2018-05-02T11:29:49.459Z,41.60
2018-05-02T11:32:16.903Z,42.10
2018-05-02T11:34:44.380Z,42.20
2018-05-02T11:37:11.981Z,41.80
2018-05-02T11:39:39.422Z,41.30
2018-05-02T11:42:08.496Z,39.10
2018-05-02T11:44:36.037Z,39.10
2018-05-02T11:47:03.486Z,40.10
2018-05-02T11:49:31.291Z,40.50
2018-05-02T11:51:58.736Z,39.80
2018-05-02T11:54:26.404Z,40.50
2018-05-02T11:56:53.924Z,40.30
2018-05-02T11:59:21.527Z,40.00
2018-05-02T12:01:49.188Z,40.70
2018-05-02T12:04:16.773Z,41.70
2018-05-02T12:06:44.277Z,39.40
2018-05-02T12:09:11.749Z,40.20
2018-05-02T12:11:39.417Z,38.30
2018-05-02T12:14:09.268Z,40.30
2018-05-02T12:16:37.456Z,40.20
2018-05-02T12:19:05.185Z,39.60
2018-05-02T12:21:32.561Z,40.60
2018-05-02T12:24:00.024Z,39.10
2018-05-02T12:26:27.615Z,40.40
2018-05-02T12:28:55.113Z,39.80
2018-05-02T12:31:22.574Z,39.40
2018-05-02T12:33:50.023Z,39.40
2018-05-02T12:36:17.664Z,39.90
2018-05-02T12:38:45.181Z,39.20
2018-05-02T12:41:12.636Z,39.00
2018-05-02T12:43:40.116Z,40.90
2018-05-02T12:46:07.556Z,39.30
2018-05-02T12:48:35.062Z,39.40
2018-05-02T12:51:02.607Z,38.60
2018-05-02T12:53:30.127Z,39.90
2018-05-02T12:55:57.726Z,39.60
2018-05-02T12:58:27.835Z,41.40
2018-05-02T13:00:55.370Z,40.40
2018-05-02T13:03:23.230Z,41.00
2018-05-02T13:05:50.692Z,41.50
2018-05-02T13:08:18.275Z,39.20
2018-05-02T13:10:45.939Z,39.70
2018-05-02T13:13:13.464Z,39.70
2018-05-02T13:15:41.090Z,39.50
2018-05-02T13:18:10.650Z,39.00
2018-05-02T13:20:41.462Z,39.50
2018-05-02T13:23:11.096Z,40.00
2018-05-02T13:25:38.685Z,41.10
2018-05-02T13:28:11.215Z,40.60
2018-05-02T13:30:38.896Z,39.40
2018-05-02T13:33:07.419Z,38.90
2018-05-02T13:35:35.031Z,40.20
2018-05-02T13:38:02.705Z,39.80
2018-05-02T13:40:32.012Z,40.30
2018-05-02T13:42:59.654Z,40.30
2018-05-02T13:45:27.318Z,39.30
2018-05-02T13:47:54.959Z,39.70
2018-05-02T13:50:22.636Z,39.60
2018-05-02T13:52:50.070Z,39.90
2018-05-02T13:55:17.782Z,39.50
2018-05-02T13:57:45.399Z,40.90
2018-05-02T14:00:12.888Z,40.80
2018-05-02T14:02:40.416Z,40.40
2018-05-02T14:05:07.860Z,41.40
2018-05-02T14:07:35.313Z,38.70
2018-05-02T14:10:02.892Z,38.40
2018-05-02T14:12:30.358Z,39.50
2018-05-02T14:14:57.807Z,40.30
2018-05-02T14:17:25.467Z,39.20
2018-05-02T14:19:53.101Z,39.30
2018-05-02T14:22:20.603Z,39.60
2018-05-02T14:24:48.085Z,40.70
2018-05-02T14:27:15.719Z,39.90
2018-05-02T14:29:43.185Z,41.40
2018-05-02T14:32:10.632Z,40.10
2018-05-02T14:34:38.287Z,40.40
2018-05-02T14:37:07.240Z,39.30
2018-05-02T14:39:34.913Z,39.20
2018-05-02T14:42:02.496Z,38.50
2018-05-02T14:44:30.155Z,37.90
2018-05-02T14:46:57.830Z,38.80
2018-05-02T14:49:26.832Z,39.90
2018-05-02T14:51:55.064Z,39.80
2018-05-02T14:54:22.513Z,39.70
2018-05-02T14:56:49.962Z,40.00
2018-05-02T14:59:17.494Z,38.00
2018-05-02T15:01:45.078Z,36.50
2018-05-02T15:04:12.529Z,38.00
2018-05-02T15:06:40.122Z,36.80
2018-05-02T15:09:08.159Z,38.60
2018-05-02T15:11:36.564Z,39.70
2018-05-02T15:14:04.015Z,39.20
2018-05-02T15:16:31.587Z,39.60
2018-05-02T15:18:59.287Z,38.80
2018-05-02T15:21:26.923Z,38.50
2018-05-02T15:23:54.555Z,38.60
2018-05-02T15:26:22.228Z,38.20
2018-05-02T15:28:54.867Z,39.50
2018-05-02T15:31:23.395Z,40.30
2018-05-02T15:33:54.141Z,40.00
2018-05-02T15:36:22.419Z,40.90
2018-05-02T15:38:50.777Z,40.30
2018-05-02T15:41:18.249Z,40.30
2018-05-02T15:43:46.938Z,39.00
2018-05-02T15:46:14.439Z,39.00
2018-05-02T15:48:41.892Z,39.90
2018-05-02T15:51:09.339Z,39.10
2018-05-02T15:53:36.811Z,38.10
2018-05-02T15:56:04.284Z,38.80
2018-05-02T15:58:31.832Z,39.00
2018-05-02T16:00:59.196Z,39.20
2018-05-02T16:03:26.669Z,39.60
2018-05-02T16:05:56.952Z,37.80
2018-05-02T16:08:24.404Z,37.90
2018-05-02T16:10:52.069Z,38.80
2018-05-02T16:13:20.346Z,39.70
2018-05-02T16:15:48.642Z,39.30
2018-05-02T16:18:18.275Z,39.60
2018-05-02T16:20:49.376Z,39.50
2018-05-02T16:23:19.081Z,38.40
2018-05-02T16:25:46.531Z,39.00
2018-05-02T16:28:13.935Z,39.00
2018-05-02T16:30:41.701Z,39.00
2018-05-02T16:33:10.420Z,40.20
2018-05-02T16:35:37.913Z,40.40
2018-05-02T16:38:05.361Z,41.40
2018-05-02T16:40:32.887Z,40.30
2018-05-02T16:43:00.387Z,40.40
2018-05-02T16:45:28.547Z,40.50
2018-05-02T16:47:56.018Z,40.50
2018-05-02T16:50:23.678Z,40.60
2018-05-02T16:52:51.157Z,39.20
2018-05-02T16:55:18.952Z,40.00
2018-05-02T16:57:47.198Z,39.20
2018-05-02T17:00:16.270Z,39.20
2018-05-02T17:02:43.947Z,39.20
2018-05-02T17:05:11.421Z,39.20
2018-05-02T17:07:39.055Z,39.20
2018-05-02T17:10:09.979Z,40.30
2018-05-02T17:12:37.659Z,40.30
2018-05-02T17:15:06.147Z,40.50
2018-05-02T17:17:33.689Z,40.10
2018-05-02T17:20:01.186Z,39.80
2018-05-02T17:22:29.476Z,41.30
2018-05-02T17:24:56.978Z,41.20
2018-05-02T17:27:25.349Z,41.90
2018-05-02T17:29:54.417Z,41.90
2018-05-02T17:32:23.597Z,40.40
2018-05-02T17:34:53.943Z,40.60
2018-05-02T17:37:24.845Z,41.80
2018-05-02T17:39:53.368Z,41.70
2018-05-02T17:42:20.836Z,41.70
2018-05-02T17:44:48.280Z,40.90
2018-05-02T17:47:15.783Z,41.60
2018-05-02T17:49:43.232Z,41.70
2018-05-02T17:52:10.763Z,41.60
2018-05-02T17:54:39.188Z,40.90
2018-05-02T17:57:06.617Z,41.60
2018-05-02T17:59:34.831Z,42.40
2018-05-02T18:02:02.657Z,42.30
2018-05-02T18:04:31.387Z,42.90
2018-05-02T18:06:59.097Z,43.10
2018-05-02T18:09:26.555Z,43.80
2018-05-02T18:11:55.529Z,44.00
2018-05-02T18:14:22.979Z,43.90
2018-05-02T18:16:50.556Z,44.50
2018-05-02T18:19:18.092Z,44.80
2018-05-02T18:21:45.656Z,44.40
2018-05-02T18:24:13.504Z,45.30
2018-05-02T18:26:41.025Z,45.00
2018-05-02T18:29:08.853Z,45.60
2018-05-02T18:31:36.309Z,45.80
2018-05-02T18:34:03.860Z,44.50
2018-05-02T18:36:31.375Z,44.50
2018-05-02T18:39:00.033Z,44.80
2018-05-02T18:41:28.261Z,45.90
2018-05-02T18:43:58.384Z,45.80
2018-05-02T18:46:27.458Z,45.40
2018-05-02T18:48:55.026Z,45.50
2018-05-02T18:51:22.481Z,45.90
2018-05-02T18:53:50.010Z,46.20
2018-05-02T18:56:17.725Z,46.60
2018-05-02T18:58:45.479Z,47.00
2018-05-02T19:01:13.027Z,48.70
2018-05-02T19:03:52.036Z,49.50
2018-05-02T19:06:20.361Z,50.40
2018-05-02T19:08:48.050Z,51.50
2018-05-02T19:11:15.661Z,52.40
2018-05-02T19:14:03.827Z,53.90
2018-05-02T19:16:35.842Z,53.90
2018-05-02T19:19:09.754Z,54.30
2018-05-02T19:21:37.209Z,54.50
2018-05-02T19:24:04.901Z,55.10
2018-05-02T19:26:36.755Z,55.20
2018-05-02T19:29:06.037Z,55.70
2018-05-02T19:31:39.907Z,56.00
2018-05-02T19:34:08.143Z,57.50
2018-05-02T19:36:35.645Z,57.50
2018-05-02T19:39:04.014Z,58.30
2018-05-02T19:41:37.182Z,58.30
2018-05-02T19:44:04.672Z,58.70
2018-05-02T19:46:32.732Z,60.10
2018-05-02T19:49:04.318Z,59.70
2018-05-02T19:51:38.025Z,60.00
2018-05-02T19:54:06.438Z,60.20
2018-05-02T19:56:36.730Z,60.40
2018-05-02T19:59:05.982Z,61.00
2018-05-02T20:01:40.341Z,61.70
2018-05-02T20:04:08.642Z,61.70
2018-05-02T20:06:36.131Z,62.70
2018-05-02T20:09:09.319Z,63.50
2018-05-02T20:11:46.857Z,64.50
2018-05-02T20:14:14.332Z,64.00
2018-05-02T20:16:43.253Z,64.20
2018-05-02T20:19:10.991Z,64.10
2018-05-02T20:21:38.696Z,64.50
2018-05-02T20:24:08.897Z,65.60
2018-05-02T20:26:39.731Z,66.10
2018-05-02T20:29:10.708Z,65.90
2018-05-02T20:31:38.234Z,66.20
2018-05-02T20:34:05.753Z,67.70
2018-05-02T20:36:33.235Z,67.40
2018-05-02T20:39:01.453Z,67.80
2018-05-02T20:41:28.963Z,68.70
2018-05-02T20:43:56.638Z,69.00
2018-05-02T20:46:26.534Z,70.00
2018-05-02T20:48:54.192Z,70.20
2018-05-02T20:51:22.859Z,71.00
2018-05-02T20:53:53.115Z,70.70
2018-05-02T20:58:56.146Z,71.10
2018-05-02T21:01:28.068Z,71.00
2018-05-02T21:03:55.813Z,71.50
2018-05-02T21:06:23.851Z,71.50
2018-05-02T21:08:51.527Z,71.90
2018-05-02T21:11:19.597Z,72.00
2018-05-02T21:13:48.258Z,72.20
2018-05-02T21:16:16.081Z,72.50
2018-05-02T21:18:45.552Z,72.60
2018-05-02T21:21:13.038Z,72.40
2018-05-02T21:23:41.456Z,72.80
2018-05-02T21:26:09.035Z,73.10
2018-05-02T21:28:36.858Z,73.00
2018-05-02T21:31:05.754Z,73.00
2018-05-02T21:33:33.614Z,73.00
2018-05-02T21:36:01.228Z,73.20
2018-05-02T21:38:28.795Z,73.40
2018-05-02T21:40:57.178Z,73.10
2018-05-02T21:43:26.174Z,73.10
2018-05-02T21:45:54.865Z,73.10
2018-05-02T21:48:23.788Z,73.00
2018-05-02T21:50:52.098Z,73.50
2018-05-02T21:53:21.747Z,73.40
2018-05-02T21:55:49.280Z,73.10
2018-05-02T21:58:18.662Z,73.30
2018-05-02T22:00:46.109Z,73.20
2018-05-02T22:03:16.182Z,73.50
2018-05-02T22:05:45.725Z,73.30
2018-05-02T22:08:15.610Z,73.60
2018-05-02T22:10:46.200Z,73.50
2018-05-02T22:13:13.762Z,73.50
2018-05-02T22:15:42.938Z,74.10
2018-05-02T22:18:13.111Z,73.50
2018-05-02T22:20:41.660Z,73.30
2018-05-02T22:23:11.682Z,73.30
2018-05-02T22:25:39.145Z,73.60
2018-05-02T22:28:06.708Z,73.30
2018-05-02T22:30:34.347Z,73.20
2018-05-02T22:33:01.806Z,73.70
2018-05-02T22:35:29.352Z,73.60
2018-05-02T22:37:56.823Z,73.40
2018-05-02T22:40:24.485Z,73.40
2018-05-02T22:42:52.041Z,72.90
2018-05-02T22:45:19.531Z,72.80
2018-05-02T22:47:47.791Z,73.00
2018-05-02T22:50:15.240Z,73.00
2018-05-02T22:52:44.324Z,73.60
2018-05-02T22:55:11.778Z,73.60
2018-05-02T22:57:39.256Z,73.30
2018-05-02T23:00:06.715Z,73.60
2018-05-02T23:02:34.396Z,73.60
2018-05-02T23:05:02.013Z,73.80
2018-05-02T23:07:29.481Z,73.90
2018-05-02T23:09:57.152Z,74.10
2018-05-02T23:12:24.601Z,74.30
2018-05-02T23:14:52.139Z,74.40
2018-05-02T23:17:19.579Z,74.60
2018-05-02T23:19:47.165Z,74.40
2018-05-02T23:22:14.820Z,74.30
2018-05-02T23:24:42.277Z,74.00
2018-05-02T23:27:09.937Z,73.40
2018-05-02T23:29:37.475Z,73.50
2018-05-02T23:32:05.065Z,72.90
2018-05-02T23:34:32.615Z,72.70
2018-05-02T23:37:00.171Z,72.20
2018-05-02T23:39:27.732Z,72.40
2018-05-02T23:41:55.184Z,72.20
2018-05-02T23:44:22.632Z,71.90
2018-05-02T23:46:50.209Z,71.80
2018-05-02T23:49:17.886Z,71.60
2018-05-02T23:51:45.407Z,71.50
2018-05-02T23:54:12.973Z,71.80
2018-05-02T23:56:40.435Z,71.50
2018-05-02T23:59:07.980Z,71.10
